Time;durP1;ratioP1;P1;durP2;ratioP2;P2;SDS_P1;SDS_P2;PMS_P1;PMS_P2;Temp;Humidity;BMP_temperature;BMP_pressure;BME280_temperature;BME280_humidity;BME280_pressure;Samples;Min_cycle;Max_cycle;Signal;HPM_P1;HPM_P2
2021/06/09 00:01:17;;;;;;;6.68;4.85;;;;;;;;;;10321358;28;20072;-64
2021/06/09 00:06:15;;;;;;;5.65;4.03;;;;;;;;;;10321599;28;20072;-63
2021/06/09 00:11:13;;;;;;;5.18;4.78;;;;;;;;;;10321025;28;20079;-63
2021/06/09 00:16:14;;;;;;;5.45;4.95;;;;;;;;;;10319423;28;20404;-63
2021/06/09 00:21:12;;;;;;;6.93;5.28;;;;;;;;;;10320714;28;20072;-64
2021/06/09 00:26:10;;;;;;;6.35;5.45;;;;;;;;;;10320329;28;20068;-65
2021/06/09 00:31:08;;;;;;;6.65;5.00;;;;;;;;;;10320624;28;20056;-63
2021/06/09 00:36:08;;;;;;;4.80;4.32;;;;;;;;;;10320127;28;20048;-64
2021/06/09 00:41:07;;;;;;;8.68;5.43;;;;;;;;;;10320179;28;20496;-64
2021/06/09 00:46:07;;;;;;;6.10;5.53;;;;;;;;;;10318746;28;20064;-64
2021/06/09 00:51:05;;;;;;;7.35;4.90;;;;;;;;;;10315662;28;20076;-62
2021/06/09 00:56:07;;;;;;;6.18;5.40;;;;;;;;;;10313483;28;20075;-63
2021/06/09 01:01:06;;;;;;;8.00;5.63;;;;;;;;;;10313671;28;20501;-63
2021/06/09 01:06:04;;;;;;;9.32;5.93;;;;;;;;;;10315318;28;20076;-64
2021/06/09 01:11:02;;;;;;;7.05;5.07;;;;;;;;;;10316880;28;20098;-64
2021/06/09 01:16:02;;;;;;;6.47;5.07;;;;;;;;;;10316767;28;20497;-62
2021/06/09 01:21:00;;;;;;;6.88;5.57;;;;;;;;;;10316638;28;20075;-64
2021/06/09 01:26:00;;;;;;;7.35;5.35;;;;;;;;;;10316634;28;20044;-63
2021/06/09 01:30:58;;;;;;;5.35;4.82;;;;;;;;;;10317861;28;20056;-64
2021/06/09 01:35:56;;;;;;;6.30;5.18;;;;;;;;;;10317476;28;20382;-63
2021/06/09 01:40:54;;;;;;;6.57;4.75;;;;;;;;;;10317525;28;20079;-63
2021/06/09 01:45:54;;;;;;;6.07;4.90;;;;;;;;;;10316481;28;20041;-63
2021/06/09 01:50:52;;;;;;;5.50;4.95;;;;;;;;;;10316633;28;20095;-64
2021/06/09 01:55:50;;;;;;;7.07;5.38;;;;;;;;;;10316361;28;20048;-63
2021/06/09 02:00:48;;;;;;;8.45;5.43;;;;;;;;;;10316654;28;20072;-64
2021/06/09 02:05:47;;;;;;;5.90;4.90;;;;;;;;;;10316825;28;20103;-63
2021/06/09 02:10:45;;;;;;;9.43;5.47;;;;;;;;;;10317075;28;20429;-63
2021/06/09 02:15:43;;;;;;;7.15;5.70;;;;;;;;;;10316967;28;20059;-63
2021/06/09 02:20:43;;;;;;;5.65;4.93;;;;;;;;;;10316523;28;20072;-63
2021/06/09 02:25:43;;;;;;;7.22;5.43;;;;;;;;;;10316117;28;20094;-63
2021/06/09 02:30:41;;;;;;;5.30;4.80;;;;;;;;;;10316655;28;20115;-63
2021/06/09 02:35:40;;;;;;;8.07;5.07;;;;;;;;;;10315808;28;20072;-63
2021/06/09 02:40:39;;;;;;;7.75;5.32;;;;;;;;;;10316407;28;20080;-64
2021/06/09 02:45:38;;;;;;;10.00;5.72;;;;;;;;;;10315181;28;20087;-63
2021/06/09 02:50:36;;;;;;;11.52;6.13;;;;;;;;;;10315256;28;20080;-64
2021/06/09 02:55:41;;;;;;;10.18;6.05;;;;;;;;;;10315435;28;20052;-63
2021/06/09 03:00:45;;;;;;;6.65;5.95;;;;;;;;;;10312207;28;20083;-63
2021/06/09 03:05:44;;;;;;;6.50;5.15;;;;;;;;;;10295290;28;20466;-63
2021/06/09 03:10:48;;;;;;;9.77;6.03;;;;;;;;;;10291158;28;20099;-63
2021/06/09 03:15:51;;;;;;;8.13;5.33;;;;;;;;;;10291551;28;20286;-64
2021/06/09 03:20:51;;;;;;;13.07;5.75;;;;;;;;;;10298597;28;20569;-63
2021/06/09 03:25:51;;;;;;;8.65;5.85;;;;;;;;;;10299067;28;20414;-63
2021/06/09 03:30:52;;;;;;;9.13;5.90;;;;;;;;;;10286043;28;20077;-64
2021/06/09 03:35:53;;;;;;;8.50;6.03;;;;;;;;;;10286738;28;20071;-63
2021/06/09 03:40:54;;;;;;;9.73;6.00;;;;;;;;;;10308653;28;20076;-63
2021/06/09 03:45:54;;;;;;;7.32;6.07;;;;;;;;;;10318829;28;20084;-63
2021/06/09 03:50:53;;;;;;;9.40;5.50;;;;;;;;;;10319879;28;20044;-63
2021/06/09 03:55:51;;;;;;;5.63;4.75;;;;;;;;;;10318640;28;20103;-63
2021/06/09 04:00:52;;;;;;;9.35;6.05;;;;;;;;;;10319766;28;20493;-63
2021/06/09 04:05:52;;;;;;;7.20;6.35;;;;;;;;;;10319668;28;20036;-62
2021/06/09 04:10:54;;;;;;;8.95;6.63;;;;;;;;;;10318286;28;20052;-64
2021/06/09 04:15:52;;;;;;;8.85;7.30;;;;;;;;;;10318768;28;20083;-62
2021/06/09 04:20:51;;;;;;;9.27;5.55;;;;;;;;;;10319201;28;20080;-62
2021/06/09 04:25:49;;;;;;;6.57;5.82;;;;;;;;;;10319102;28;20182;-63
2021/06/09 04:30:48;;;;;;;8.88;6.03;;;;;;;;;;10319135;28;20048;-63
2021/06/09 04:35:46;;;;;;;9.18;6.85;;;;;;;;;;10318210;28;20068;-63
2021/06/09 04:40:46;;;;;;;10.23;7.10;;;;;;;;;;10318264;28;20510;-62
2021/06/09 04:45:44;;;;;;;18.63;6.97;;;;;;;;;;10317537;28;20044;-63
2021/06/09 04:50:43;;;;;;;10.18;6.53;;;;;;;;;;10317734;28;20045;-63
2021/06/09 04:55:41;;;;;;;17.25;9.20;;;;;;;;;;10317831;28;20451;-63
2021/06/09 05:00:41;;;;;;;50.88;38.60;;;;;;;;;;10317729;28;20095;-63
2021/06/09 05:05:39;;;;;;;14.85;11.35;;;;;;;;;;10317007;28;20037;-63
2021/06/09 05:10:38;;;;;;;15.02;8.85;;;;;;;;;;10317510;28;20537;-63
2021/06/09 05:15:38;;;;;;;26.10;14.57;;;;;;;;;;10317065;28;20049;-63
2021/06/09 05:20:39;;;;;;;14.55;12.52;;;;;;;;;;10317075;28;20075;-63
2021/06/09 05:25:38;;;;;;;9.75;6.43;;;;;;;;;;10316274;28;20072;-62
2021/06/09 05:30:38;;;;;;;9.85;5.88;;;;;;;;;;10315778;28;20049;-63
2021/06/09 05:35:36;;;;;;;9.45;6.68;;;;;;;;;;10316670;28;20040;-62
2021/06/09 05:40:35;;;;;;;12.45;6.82;;;;;;;;;;10315710;28;20495;-62
2021/06/09 05:45:34;;;;;;;9.85;7.38;;;;;;;;;;10315579;28;20079;-63
2021/06/09 05:50:32;;;;;;;7.47;6.72;;;;;;;;;;10315231;28;20090;-62
2021/06/09 05:55:30;;;;;;;9.70;6.53;;;;;;;;;;10315190;28;20040;-62
2021/06/09 06:00:30;;;;;;;8.25;6.45;;;;;;;;;;10315678;28;20048;-61
2021/06/09 06:05:28;;;;;;;7.63;6.25;;;;;;;;;;10313469;28;20045;-61
2021/06/09 06:10:26;;;;;;;10.50;6.85;;;;;;;;;;10315286;28;20037;-61
2021/06/09 06:15:24;;;;;;;13.43;12.13;;;;;;;;;;10315120;28;20083;-61
2021/06/09 06:20:25;;;;;;;9.88;8.60;;;;;;;;;;10314584;28;20439;-62
2021/06/09 06:25:23;;;;;;;8.82;6.97;;;;;;;;;;10314626;28;20087;-62
2021/06/09 06:30:22;;;;;;;11.40;8.73;;;;;;;;;;10314532;28;20049;-62
2021/06/09 06:35:22;;;;;;;15.63;9.05;;;;;;;;;;10314976;28;20048;-62
2021/06/09 06:40:23;;;;;;;12.07;7.28;;;;;;;;;;10316685;28;20177;-62
2021/06/09 06:45:22;;;;;;;9.02;7.85;;;;;;;;;;10323370;28;20072;-63
2021/06/09 06:50:20;;;;;;;8.73;6.63;;;;;;;;;;10322157;28;20074;-61
2021/06/09 06:55:19;;;;;;;10.20;6.00;;;;;;;;;;10322904;28;20083;-61
2021/06/09 07:00:20;;;;;;;9.90;6.85;;;;;;;;;;10322046;28;20067;-62
2021/06/09 07:05:19;;;;;;;9.55;5.95;;;;;;;;;;10321694;28;20083;-62
2021/06/09 07:10:17;;;;;;;8.77;5.90;;;;;;;;;;10322044;28;20098;-62
2021/06/09 07:15:17;;;;;;;13.00;5.93;;;;;;;;;;10321569;28;20398;-61
2021/06/09 07:20:18;;;;;;;7.50;5.80;;;;;;;;;;10320930;28;20386;-62
2021/06/09 07:25:16;;;;;;;6.32;4.65;;;;;;;;;;10320915;28;20103;-62
2021/06/09 07:30:17;;;;;;;6.95;6.25;;;;;;;;;;10321726;28;20077;-62
2021/06/09 07:35:17;;;;;;;7.78;5.30;;;;;;;;;;10320462;28;20044;-62
2021/06/09 07:40:17;;;;;;;7.90;6.50;;;;;;;;;;10320549;28;20543;-63
2021/06/09 07:45:17;;;;;;;6.68;4.50;;;;;;;;;;10320250;28;20064;-62
2021/06/09 07:50:20;;;;;;;11.40;6.95;;;;;;;;;;10319970;28;20539;-62
2021/06/09 07:55:18;;;;;;;5.57;4.20;;;;;;;;;;10320057;28;20087;-62
2021/06/09 08:00:16;;;;;;;6.55;5.18;;;;;;;;;;10320091;28;20494;-61
2021/06/09 08:05:14;;;;;;;6.43;5.82;;;;;;;;;;10319422;28;20068;-61
2021/06/09 08:10:13;;;;;;;11.30;5.13;;;;;;;;;;10319382;28;20068;-62
2021/06/09 08:15:12;;;;;;;9.10;5.60;;;;;;;;;;10319363;28;20071;-62
2021/06/09 08:20:11;;;;;;;8.75;5.03;;;;;;;;;;10319579;28;20080;-62
2021/06/09 08:25:09;;;;;;;6.35;5.45;;;;;;;;;;10317529;28;20517;-62
2021/06/09 08:30:09;;;;;;;7.13;4.50;;;;;;;;;;10318970;28;20892;-62
2021/06/09 08:35:08;;;;;;;7.68;4.68;;;;;;;;;;10319001;28;20056;-62
2021/06/09 08:40:07;;;;;;;5.47;4.97;;;;;;;;;;10318579;28;20469;-62
2021/06/09 08:45:07;;;;;;;8.27;7.20;;;;;;;;;;10318114;28;20163;-62
2021/06/09 08:50:07;;;;;;;7.03;4.90;;;;;;;;;;10318316;28;20084;-62
2021/06/09 08:55:05;;;;;;;7.32;6.25;;;;;;;;;;10317949;28;20036;-62
2021/06/09 09:00:04;;;;;;;7.88;7.07;;;;;;;;;;10318277;28;20512;-63
2021/06/09 09:05:02;;;;;;;8.50;5.28;;;;;;;;;;10316276;28;20510;-63
2021/06/09 09:10:02;;;;;;;6.10;4.47;;;;;;;;;;10317402;28;20532;-63
2021/06/09 09:15:00;;;;;;;3.85;3.45;;;;;;;;;;10316564;28;20060;-63
2021/06/09 09:20:05;;;;;;;5.50;3.95;;;;;;;;;;10316302;28;20067;-63
2021/06/09 09:25:12;;;;;;;5.50;3.60;;;;;;;;;;10316394;28;20497;-63
2021/06/09 09:30:11;;;;;;;4.97;4.50;;;;;;;;;;10315988;28;20040;-63
2021/06/09 09:35:11;;;;;;;7.40;4.22;;;;;;;;;;10315934;28;20075;-63
2021/06/09 09:40:15;;;;;;;3.88;3.50;;;;;;;;;;10316460;28;20044;-62
2021/06/09 09:45:15;;;;;;;5.30;3.92;;;;;;;;;;10315935;28;20072;-61
2021/06/09 09:50:32;;;;;;;4.80;3.80;;;;;;;;;;10315276;28;20516;-61
2021/06/09 09:55:53;;;;;;;5.45;3.58;;;;;;;;;;10315717;28;20084;-61
2021/06/09 10:01:07;;;;;;;6.35;3.90;;;;;;;;;;10315308;28;20041;-62
2021/06/09 10:06:22;;;;;;;7.95;3.45;;;;;;;;;;10315290;28;20086;-61
2021/06/09 10:11:22;;;;;;;7.78;5.93;;;;;;;;;;10315961;28;20501;-62
2021/06/09 10:16:21;;;;;;;6.63;4.45;;;;;;;;;;10314694;28;20088;-62
2021/06/09 10:21:19;;;;;;;6.45;3.97;;;;;;;;;;10314535;28;20477;-62
2021/06/09 10:26:18;;;;;;;4.22;3.60;;;;;;;;;;10314679;28;20084;-61
2021/06/09 10:31:17;;;;;;;5.65;4.35;;;;;;;;;;10314521;28;20068;-61
2021/06/09 10:36:15;;;;;;;4.80;3.78;;;;;;;;;;10314398;28;20056;-62
2021/06/09 10:41:14;;;;;;;5.93;2.78;;;;;;;;;;10314896;28;20044;-62
2021/06/09 10:46:13;;;;;;;4.57;2.80;;;;;;;;;;10314279;28;20087;-62
2021/06/09 10:51:12;;;;;;;5.15;3.67;;;;;;;;;;10314778;28;20099;-62
2021/06/09 10:56:10;;;;;;;7.20;3.17;;;;;;;;;;10314691;28;20048;-62
2021/06/09 11:01:08;;;;;;;6.93;3.72;;;;;;;;;;10313614;28;20091;-62
2021/06/09 11:06:06;;;;;;;4.45;4.05;;;;;;;;;;10313830;28;20076;-63
2021/06/09 11:11:15;;;;;;;5.20;3.67;;;;;;;;;;10314600;28;20056;-63
2021/06/09 11:16:13;;;;;;;5.32;3.42;;;;;;;;;;10314357;28;20060;-62
2021/06/09 11:21:13;;;;;;;6.30;3.58;;;;;;;;;;10313755;28;20044;-62
2021/06/09 11:26:25;;;;;;;3.00;2.65;;;;;;;;;;10314150;28;20466;-62
2021/06/09 11:31:24;;;;;;;5.07;3.20;;;;;;;;;;10320636;28;20083;-61
2021/06/09 11:36:30;;;;;;;5.07;2.80;;;;;;;;;;10321047;28;20041;-62
2021/06/09 11:41:29;;;;;;;2.78;2.58;;;;;;;;;;10321032;28;20048;-62
2021/06/09 11:46:28;;;;;;;5.32;3.08;;;;;;;;;;10320682;28;20080;-62
2021/06/09 11:51:28;;;;;;;5.80;2.85;;;;;;;;;;10320331;28;20048;-62
2021/06/09 11:56:26;;;;;;;5.50;3.17;;;;;;;;;;10320367;28;20480;-62
2021/06/09 12:01:34;;;;;;;4.60;2.28;;;;;;;;;;10320267;28;20054;-62
2021/06/09 12:06:39;;;;;;;4.82;3.85;;;;;;;;;;10320198;28;20072;-62
2021/06/09 12:11:38;;;;;;;3.67;3.05;;;;;;;;;;10319931;28;20032;-62
2021/06/09 12:16:37;;;;;;;4.35;3.03;;;;;;;;;;10319649;28;20049;-62
2021/06/09 12:21:35;;;;;;;2.67;2.40;;;;;;;;;;10319025;28;20080;-62
2021/06/09 12:26:33;;;;;;;3.67;2.60;;;;;;;;;;10319301;28;20080;-62
2021/06/09 12:31:31;;;;;;;8.70;4.15;;;;;;;;;;10319283;28;20075;-62
2021/06/09 12:36:31;;;;;;;5.05;3.40;;;;;;;;;;10318457;28;20049;-62
2021/06/09 12:41:28;;;;;;;3.35;3.05;;;;;;;;;;10318190;28;20406;-62
2021/06/09 12:46:26;;;;;;;6.07;2.38;;;;;;;;;;10318004;28;20506;-62
2021/06/09 12:51:27;;;;;;;3.60;2.97;;;;;;;;;;10318477;28;20072;-62
2021/06/09 12:56:26;;;;;;;2.67;2.35;;;;;;;;;;10318419;28;20536;-62
2021/06/09 13:01:24;;;;;;;4.43;3.30;;;;;;;;;;10317796;28;20048;-62
2021/06/09 13:06:23;;;;;;;4.72;4.32;;;;;;;;;;10317932;28;20079;-62
2021/06/09 13:11:22;;;;;;;5.13;3.85;;;;;;;;;;10317392;28;20661;-62
2021/06/09 13:16:22;;;;;;;7.00;2.92;;;;;;;;;;10316895;28;20088;-61
2021/06/09 13:21:26;;;;;;;6.65;4.78;;;;;;;;;;10317093;28;20405;-61
2021/06/09 13:26:24;;;;;;;5.70;2.63;;;;;;;;;;10316751;28;20076;-61
2021/06/09 13:31:30;;;;;;;6.97;3.20;;;;;;;;;;10316377;28;20067;-62
2021/06/09 13:36:28;;;;;;;6.95;3.25;;;;;;;;;;10316387;28;20087;-62
2021/06/09 13:41:26;;;;;;;2.60;2.40;;;;;;;;;;10316184;28;20045;-62
2021/06/09 13:46:24;;;;;;;5.88;2.50;;;;;;;;;;10315790;28;20083;-61
2021/06/09 13:51:23;;;;;;;4.35;2.50;;;;;;;;;;10315468;28;20041;-61
2021/06/09 13:56:29;;;;;;;3.50;2.53;;;;;;;;;;10315593;28;20063;-61
2021/06/09 14:01:35;;;;;;;4.18;2.38;;;;;;;;;;10315273;28;20051;-62
2021/06/09 14:06:35;;;;;;;7.05;4.18;;;;;;;;;;10315626;28;20531;-63
2021/06/09 14:11:33;;;;;;;5.25;2.80;;;;;;;;;;10315641;28;20045;-61
2021/06/09 14:16:32;;;;;;;6.45;2.60;;;;;;;;;;10314909;28;20041;-61
2021/06/09 14:21:31;;;;;;;4.00;3.33;;;;;;;;;;10315683;28;20052;-61
2021/06/09 14:26:31;;;;;;;7.97;2.97;;;;;;;;;;10313462;28;20044;-61
2021/06/09 14:31:29;;;;;;;5.65;2.70;;;;;;;;;;10315031;28;20049;-62
2021/06/09 14:36:31;;;;;;;4.30;3.10;;;;;;;;;;10305906;28;20095;-61
2021/06/09 14:41:32;;;;;;;5.53;2.92;;;;;;;;;;10275457;28;20072;-62
2021/06/09 14:46:43;;;;;;;11.65;3.33;;;;;;;;;;10290147;28;20060;-62
2021/06/09 14:51:41;;;;;;;8.73;3.97;;;;;;;;;;10292975;28;20334;-60
2021/06/09 14:56:42;;;;;;;5.07;2.97;;;;;;;;;;10289614;28;20075;-61
2021/06/09 15:01:39;;;;;;;6.10;3.72;;;;;;;;;;10302559;28;20049;-61
2021/06/09 15:06:38;;;;;;;9.48;5.13;;;;;;;;;;10301818;28;20528;-61
2021/06/09 15:11:36;;;;;;;9.23;3.10;;;;;;;;;;10298288;28;20574;-62
2021/06/09 15:16:35;;;;;;;8.15;3.53;;;;;;;;;;10293301;28;20080;-60
2021/06/09 15:21:33;;;;;;;8.30;3.55;;;;;;;;;;10281288;28;20522;-62
2021/06/09 15:26:31;;;;;;;8.07;3.97;;;;;;;;;;10292159;28;20099;-55
2021/06/09 15:31:30;;;;;;;5.97;3.60;;;;;;;;;;10300302;28;20083;-56
2021/06/09 15:36:34;;;;;;;7.20;3.78;;;;;;;;;;10293170;28;20077;-57
2021/06/09 15:41:31;;;;;;;;;;;;;;;;;;10294017;28;20416;-52
2021/06/09 15:46:29;;;;;;;5.15;2.60;;;;;;;;;;10292369;28;19952;-58
2021/06/09 15:51:27;;;;;;;6.38;2.50;;;;;;;;;;10290260;28;20075;-58
2021/06/09 15:56:26;;;;;;;4.88;3.42;;;;;;;;;;10299673;28;20040;-57
2021/06/09 16:01:27;;;;;;;4.68;2.75;;;;;;;;;;10298481;28;20467;-57
2021/06/09 16:06:27;;;;;;;6.53;2.72;;;;;;;;;;10299341;28;20067;-58
2021/06/09 16:11:26;;;;;;;7.25;2.75;;;;;;;;;;10300512;28;20045;-57
2021/06/09 16:16:24;;;;;;;4.15;3.05;;;;;;;;;;10299285;28;20462;-56
2021/06/09 16:21:33;;;;;;;6.40;5.38;;;;;;;;;;10297029;28;20033;-56
2021/06/09 16:26:33;;;;;;;9.20;6.00;;;;;;;;;;10297946;28;20068;-58
2021/06/09 16:31:31;;;;;;;7.65;6.60;;;;;;;;;;10295946;28;20077;-57
2021/06/09 16:36:28;;;;;;;9.38;5.65;;;;;;;;;;10293659;28;20060;-59
2021/06/09 16:41:26;;;;;;;6.32;4.35;;;;;;;;;;10272592;28;20077;-57
2021/06/09 16:46:25;;;;;;;13.07;10.52;;;;;;;;;;10277669;28;20529;-57
2021/06/09 16:51:23;;;;;;;13.38;10.15;;;;;;;;;;10278297;28;20087;-57
2021/06/09 16:56:38;;;;;;;4.32;3.50;;;;;;;;;;10276909;28;20422;-57
2021/06/09 17:01:38;;;;;;;7.90;7.10;;;;;;;;;;10277034;28;20048;-58
2021/06/09 17:06:36;;;;;;;8.52;5.38;;;;;;;;;;10277125;28;20087;-58
2021/06/09 17:11:38;;;;;;;4.70;4.20;;;;;;;;;;10294859;28;20067;-58
2021/06/09 17:16:40;;;;;;;9.13;7.78;;;;;;;;;;10289512;28;20092;-58
2021/06/09 17:21:38;;;;;;;10.35;6.20;;;;;;;;;;10292882;28;20198;-57
2021/06/09 17:26:36;;;;;;;8.63;6.10;;;;;;;;;;10289057;28;20475;-57
2021/06/09 17:31:34;;;;;;;10.40;7.03;;;;;;;;;;10282284;28;20072;-58
2021/06/09 17:36:33;;;;;;;6.78;4.43;;;;;;;;;;10290782;28;20524;-58
2021/06/09 17:41:31;;;;;;;11.93;6.78;;;;;;;;;;10296591;28;20079;-58
2021/06/09 17:46:29;;;;;;;8.20;6.78;;;;;;;;;;10299861;28;20052;-58
2021/06/09 17:51:26;;;;;;;4.47;3.45;;;;;;;;;;10311925;28;20068;-58
2021/06/09 17:56:26;;;;;;;5.72;4.07;;;;;;;;;;10299020;28;20040;-56
2021/06/09 18:01:41;;;;;;;12.73;7.00;;;;;;;;;;10317104;28;20051;-54
2021/06/09 18:06:39;;;;;;;6.70;5.90;;;;;;;;;;10296968;28;20080;-58
2021/06/09 18:11:39;;;;;;;7.25;5.80;;;;;;;;;;10275168;28;20065;-57
2021/06/09 18:16:36;;;;;;;8.45;5.35;;;;;;;;;;10291109;28;20505;-57
2021/06/09 18:21:35;;;;;;;8.73;4.70;;;;;;;;;;10305993;28;20497;-57
2021/06/09 18:26:33;;;;;;;10.35;5.97;;;;;;;;;;10275674;28;20071;-57
2021/06/09 18:31:32;;;;;;;8.23;3.60;;;;;;;;;;10275714;28;20041;-57
2021/06/09 18:36:30;;;;;;;4.65;3.40;;;;;;;;;;10280155;28;20547;-59
2021/06/09 18:41:28;;;;;;;5.43;3.30;;;;;;;;;;10274666;28;20535;-57
2021/06/09 18:46:26;;;;;;;6.25;5.22;;;;;;;;;;10291217;28;20079;-57
2021/06/09 18:51:26;;;;;;;9.63;5.95;;;;;;;;;;10292361;28;20088;-57
2021/06/09 18:56:24;;;;;;;7.13;3.90;;;;;;;;;;10288349;28;20045;-57
2021/06/09 19:01:22;;;;;;;9.13;4.63;;;;;;;;;;10295803;28;20079;-57
2021/06/09 19:06:20;;;;;;;7.38;4.45;;;;;;;;;;10289013;28;20077;-58
2021/06/09 19:11:20;;;;;;;7.55;4.00;;;;;;;;;;10293451;28;20079;-57
2021/06/09 19:16:18;;;;;;;5.55;4.32;;;;;;;;;;10292409;28;20103;-57
2021/06/09 19:21:16;;;;;;;6.20;4.60;;;;;;;;;;10297270;28;20076;-56
2021/06/09 19:26:15;;;;;;;10.13;6.32;;;;;;;;;;10313404;28;20088;-58
2021/06/09 19:31:14;;;;;;;11.85;7.50;;;;;;;;;;10289549;28;20064;-55
2021/06/09 19:36:12;;;;;;;8.38;4.35;;;;;;;;;;10293202;28;20069;-56
2021/06/09 19:41:11;;;;;;;6.28;4.28;;;;;;;;;;10286813;28;20088;-57
2021/06/09 19:46:09;;;;;;;6.65;4.95;;;;;;;;;;10290030;28;20178;-58
2021/06/09 19:51:09;;;;;;;8.48;4.90;;;;;;;;;;10318737;28;20048;-58
2021/06/09 19:56:11;;;;;;;5.68;4.13;;;;;;;;;;10307998;28;20076;-54
2021/06/09 20:01:09;;;;;;;7.88;4.00;;;;;;;;;;10281111;28;20449;-58
2021/06/09 20:06:10;;;;;;;5.00;4.43;;;;;;;;;;10297937;28;20083;-57
2021/06/09 20:11:08;;;;;;;7.85;3.97;;;;;;;;;;10283799;28;20048;-57
2021/06/09 20:16:06;;;;;;;8.40;3.53;;;;;;;;;;10279960;28;20091;-57
2021/06/09 20:21:04;;;;;;;6.57;3.60;;;;;;;;;;10280649;28;20052;-57
2021/06/09 20:31:20;;;;;;;5.65;4.13;;;;;;;;;;10279361;28;20509;-56
2021/06/09 20:36:19;;;;;;;8.20;4.28;;;;;;;;;;10279977;28;20053;-57
2021/06/09 20:41:18;;;;;;;5.93;4.30;;;;;;;;;;10279831;28;20045;-57
2021/06/09 20:46:16;;;;;;;6.65;3.90;;;;;;;;;;10280116;28;20080;-57
2021/06/09 20:51:14;;;;;;;5.22;3.75;;;;;;;;;;10278191;28;20446;-56
2021/06/09 20:56:12;;;;;;;5.13;3.90;;;;;;;;;;10278983;28;20049;-57
2021/06/09 21:01:11;;;;;;;10.18;4.22;;;;;;;;;;10278878;28;20111;-58
2021/06/09 21:06:09;;;;;;;6.30;4.03;;;;;;;;;;10278027;28;20080;-59
2021/06/09 21:11:07;;;;;;;5.88;3.83;;;;;;;;;;10278116;28;20093;-57
2021/06/09 21:16:08;;;;;;;9.45;3.92;;;;;;;;;;10277590;28;20072;-57
2021/06/09 21:21:08;;;;;;;13.60;4.28;;;;;;;;;;10278096;28;20044;-57
2021/06/09 21:26:06;;;;;;;7.15;4.35;;;;;;;;;;10277734;28;20529;-55
2021/06/09 21:31:03;;;;;;;6.18;4.35;;;;;;;;;;10278040;28;20045;-57
2021/06/09 21:36:01;;;;;;;6.25;3.80;;;;;;;;;;10276179;28;20068;-56
2021/06/09 21:41:00;;;;;;;7.53;3.97;;;;;;;;;;10277445;28;20045;-57
2021/06/09 21:45:58;;;;;;;6.18;4.18;;;;;;;;;;10276661;28;20533;-57
2021/06/09 21:50:56;;;;;;;5.55;3.70;;;;;;;;;;10276739;28;20083;-57
2021/06/09 21:55:54;;;;;;;3.92;3.63;;;;;;;;;;10276015;28;20037;-56
2021/06/09 22:00:53;;;;;;;8.43;3.90;;;;;;;;;;10276150;28;20045;-57
2021/06/09 22:05:51;;;;;;;6.10;4.88;;;;;;;;;;10276608;28;20084;-58
2021/06/09 22:10:49;;;;;;;12.15;5.57;;;;;;;;;;10275569;28;20046;-57
2021/06/09 22:15:47;;;;;;;8.77;4.50;;;;;;;;;;10276170;28;20477;-58
2021/06/09 22:20:46;;;;;;;7.35;4.68;;;;;;;;;;10275926;28;20048;-58
2021/06/09 22:25:44;;;;;;;10.20;4.90;;;;;;;;;;10275709;28;20500;-58
2021/06/09 22:30:42;;;;;;;13.50;5.35;;;;;;;;;;10275784;28;20056;-57
2021/06/09 22:35:40;;;;;;;6.63;5.65;;;;;;;;;;10273902;28;20049;-57
2021/06/09 22:40:39;;;;;;;10.75;6.38;;;;;;;;;;10274925;28;20040;-57
2021/06/09 22:45:37;;;;;;;7.43;4.95;;;;;;;;;;10275622;28;20083;-57
2021/06/09 22:50:35;;;;;;;7.32;6.00;;;;;;;;;;10275949;28;20060;-57
2021/06/09 22:55:33;;;;;;;7.15;4.97;;;;;;;;;;10275057;28;20056;-57
2021/06/09 23:00:33;;;;;;;10.35;5.28;;;;;;;;;;10274786;28;20077;-57
2021/06/09 23:05:30;;;;;;;6.28;5.40;;;;;;;;;;10273443;28;20486;-57
2021/06/09 23:10:28;;;;;;;7.10;4.88;;;;;;;;;;10273888;28;20504;-56
2021/06/09 23:15:26;;;;;;;7.32;3.60;;;;;;;;;;10274904;28;20060;-57
2021/06/09 23:20:26;;;;;;;6.32;4.40;;;;;;;;;;10275231;28;20049;-57
2021/06/09 23:25:23;;;;;;;6.07;4.18;;;;;;;;;;10281583;28;20099;-57
2021/06/09 23:30:22;;;;;;;7.13;4.38;;;;;;;;;;10282267;28;20290;-57
2021/06/09 23:35:19;;;;;;;6.13;4.63;;;;;;;;;;10282355;28;20045;-56
2021/06/09 23:40:19;;;;;;;6.97;4.20;;;;;;;;;;10281462;28;20076;-57
2021/06/09 23:45:16;;;;;;;9.02;4.57;;;;;;;;;;10281707;28;20045;-57
2021/06/09 23:50:21;;;;;;;5.60;4.03;;;;;;;;;;10281413;28;20068;-57
2021/06/09 23:55:21;;;;;;;7.00;4.97;;;;;;;;;;10279426;28;20037;-57
